Fairborn, OH

11:06 AM EST on March 01, 2015 (GMT -0500)
Cox-Dayton International | Change Station
CLOSE
Current Station
Airport
Location: Dayton,
Elevation: 1001 ft
Nearby Weather Stations

Elev 1001 ft 39.91 °N, 84.22 °W | Updated 10 minutes ago

Snow
Snow
30 °F
Feels Like 24 °F
N
6
Wind Variable Wind from SSW

Today
High -- | Low -- °F
--% Chance of Precip.
Yesterday
High -- | Low -- °F
Precip. -- in
7:09 AM 6:27 PM
Waxing Gibbous, 86% visible
Pressure 30.34 in
Visibility 2.0 miles
Clouds Overcast 1200 ft
Windchill 24 °F
Dew Point 27 °F
Humidity 86%
Rainfall 0.38 in
Snow Depth Not available.
UV 1 out of 12
Pollen .70 out of 12
Air Quality Not available.
Flu Activity Not available.
METAR KDAY 011556Z 21005KT 2SM -SN BR OVC012 M01/M03 A3034

More Conditions Fewer Conditions

Pressure 30.34 in
Visibility 2.0 miles
Clouds Overcast 1200 ft
Windchill 24 °F
Dew Point 27 °F
Humidity 86%
Rainfall 0.38 in
Snow Depth Not available.
UV 1 out of 12
Pollen .70 out of 12
Air Quality Not available.
Flu Activity Not available.
METAR KDAY 011556Z 21005KT 2SM -SN BR OVC012 M01/M03 A3034

More Conditions Fewer Conditions

10-Day Weather Forecast

Almanac

Astronomy

Mar. 01, 2015 Rise Set
Actual Time
Civil Twilight
Nautical Twilight
Astronomical Twilight
Moon
Length of Visible Light
Length of Day
Tomorrow will be .
, % of the Moon is Illuminated

Today's Extremes

State Highs State Lows

Community

WunderPhotos

Upload Photos

1,801,440 photos uploaded!

WunderBlogs® & News

Nearby

Air Quality

  Air Quality AQ Index Pollutant
Not available.

Snow Depth

Station Depth Elevation

Earthquake Activity

City Distance Mag. Time & Date
Minimum magnitude displayed is 2.5.

Coastal Water Temperatures

Place Temperature

Nearby Weather Stations

Winter Weather Advisory
Statement as of 9:54 AM EST on March 01, 2015

... Winter Weather Advisory remains in effect until 10 PM EST this
evening...

* accumulations... snow accumulation of 4 to 6 inches is
expected... along with a trace of ice.

* Timing... snow will will continue through the morning. Breaks in
the precipitation will occur during the afternoon and some sleet
or freezing rain could mix in at times. Snow will end this
evening.

* Impacts... travel difficulties are expected due to reduced
visibilities and snow accumulations.

Precautionary/preparedness actions...

Remember... a Winter Weather Advisory means that periods of snow...
sleet... or freezing rain will cause travel difficulties. Be
prepared for slippery roads and limited visibilities... and use
caution while driving. Stay tuned to NOAA Weather Radio or your
favorite source of information for the latest updates. Additional
details can also be found at www.Weather.Gov/iln... as well as on
our facebook and twitter pages.